sensor_id;sensor_type;location;lat;lon;timestamp;temperature;humidity
24800;DHT22;12897;50.812;4.430;2023-08-17T00:02:08;20.80;99.90
24800;DHT22;12897;50.812;4.430;2023-08-17T00:04:36;20.70;99.90
24800;DHT22;12897;50.812;4.430;2023-08-17T00:07:03;20.60;99.90
24800;DHT22;12897;50.812;4.430;2023-08-17T00:09:31;20.50;99.90
24800;DHT22;12897;50.812;4.430;2023-08-17T00:11:59;20.50;99.90
24800;DHT22;12897;50.812;4.430;2023-08-17T00:14:26;20.60;99.90
24800;DHT22;12897;50.812;4.430;2023-08-17T00:16:54;20.60;99.90
24800;DHT22;12897;50.812;4.430;2023-08-17T00:19:21;20.50;99.90
24800;DHT22;12897;50.812;4.430;2023-08-17T00:21:51;20.50;99.90
24800;DHT22;12897;50.812;4.430;2023-08-17T00:24:19;20.40;99.90
24800;DHT22;12897;50.812;4.430;2023-08-17T00:26:47;20.40;99.90
24800;DHT22;12897;50.812;4.430;2023-08-17T00:29:14;20.30;99.90
24800;DHT22;12897;50.812;4.430;2023-08-17T00:31:42;20.30;99.90
24800;DHT22;12897;50.812;4.430;2023-08-17T00:34:09;20.30;99.90
24800;DHT22;12897;50.812;4.430;2023-08-17T00:36:37;20.30;99.90
24800;DHT22;12897;50.812;4.430;2023-08-17T00:39:04;20.10;99.90
24800;DHT22;12897;50.812;4.430;2023-08-17T00:41:32;20.20;99.90
24800;DHT22;12897;50.812;4.430;2023-08-17T00:44:00;20.20;99.90
24800;DHT22;12897;50.812;4.430;2023-08-17T00:46:29;20.40;99.90
24800;DHT22;12897;50.812;4.430;2023-08-17T00:48:57;20.40;99.90
24800;DHT22;12897;50.812;4.430;2023-08-17T00:51:26;20.40;99.90
24800;DHT22;12897;50.812;4.430;2023-08-17T00:53:57;20.50;99.90
24800;DHT22;12897;50.812;4.430;2023-08-17T00:56:24;20.60;99.90
24800;DHT22;12897;50.812;4.430;2023-08-17T00:58:53;20.70;99.90
24800;DHT22;12897;50.812;4.430;2023-08-17T01:01:21;20.70;99.90
24800;DHT22;12897;50.812;4.430;2023-08-17T01:03:49;20.70;99.90
24800;DHT22;12897;50.812;4.430;2023-08-17T01:06:17;20.80;99.90
24800;DHT22;12897;50.812;4.430;2023-08-17T01:08:45;20.80;99.90
24800;DHT22;12897;50.812;4.430;2023-08-17T01:11:29;20.70;99.90
24800;DHT22;12897;50.812;4.430;2023-08-17T01:14:16;20.70;99.90
24800;DHT22;12897;50.812;4.430;2023-08-17T01:16:56;20.60;99.90
24800;DHT22;12897;50.812;4.430;2023-08-17T01:19:28;20.60;99.90
24800;DHT22;12897;50.812;4.430;2023-08-17T01:22:00;20.60;99.90
24800;DHT22;12897;50.812;4.430;2023-08-17T01:24:26;20.50;99.90
24800;DHT22;12897;50.812;4.430;2023-08-17T01:26:53;20.50;99.90
24800;DHT22;12897;50.812;4.430;2023-08-17T01:29:21;20.40;99.90
24800;DHT22;12897;50.812;4.430;2023-08-17T01:32:03;20.50;99.90
24800;DHT22;12897;50.812;4.430;2023-08-17T01:34:29;20.40;99.90
24800;DHT22;12897;50.812;4.430;2023-08-17T01:37:00;20.40;99.90
24800;DHT22;12897;50.812;4.430;2023-08-17T01:39:39;20.50;99.90
24800;DHT22;12897;50.812;4.430;2023-08-17T01:42:04;20.50;99.90
24800;DHT22;12897;50.812;4.430;2023-08-17T01:44:33;20.50;99.90
24800;DHT22;12897;50.812;4.430;2023-08-17T01:47:00;20.60;99.90
24800;DHT22;12897;50.812;4.430;2023-08-17T01:49:28;20.60;99.90
24800;DHT22;12897;50.812;4.430;2023-08-17T01:51:55;20.50;99.90
24800;DHT22;12897;50.812;4.430;2023-08-17T01:54:24;20.40;99.90
24800;DHT22;12897;50.812;4.430;2023-08-17T01:56:51;20.40;99.90
24800;DHT22;12897;50.812;4.430;2023-08-17T01:59:19;20.30;99.90
24800;DHT22;12897;50.812;4.430;2023-08-17T02:01:47;20.30;99.90
24800;DHT22;12897;50.812;4.430;2023-08-17T02:04:15;20.20;99.90
24800;DHT22;12897;50.812;4.430;2023-08-17T02:06:43;20.10;99.90
24800;DHT22;12897;50.812;4.430;2023-08-17T02:09:10;20.00;99.90
24800;DHT22;12897;50.812;4.430;2023-08-17T02:11:38;19.90;99.90
24800;DHT22;12897;50.812;4.430;2023-08-17T02:14:06;20.00;99.90
24800;DHT22;12897;50.812;4.430;2023-08-17T02:16:33;19.90;99.90
24800;DHT22;12897;50.812;4.430;2023-08-17T02:19:01;19.90;99.90
24800;DHT22;12897;50.812;4.430;2023-08-17T02:21:28;20.00;99.90
24800;DHT22;12897;50.812;4.430;2023-08-17T02:23:56;19.90;99.90
24800;DHT22;12897;50.812;4.430;2023-08-17T02:26:23;19.90;99.90
24800;DHT22;12897;50.812;4.430;2023-08-17T02:28:51;19.80;99.90
24800;DHT22;12897;50.812;4.430;2023-08-17T02:31:18;19.80;99.90
24800;DHT22;12897;50.812;4.430;2023-08-17T02:33:46;19.70;99.90
24800;DHT22;12897;50.812;4.430;2023-08-17T02:36:13;19.70;99.90
24800;DHT22;12897;50.812;4.430;2023-08-17T02:38:41;19.80;99.90
24800;DHT22;12897;50.812;4.430;2023-08-17T02:41:08;19.60;99.90
24800;DHT22;12897;50.812;4.430;2023-08-17T02:43:36;19.60;99.90
24800;DHT22;12897;50.812;4.430;2023-08-17T02:46:03;19.60;99.90
24800;DHT22;12897;50.812;4.430;2023-08-17T02:48:33;19.60;99.90
24800;DHT22;12897;50.812;4.430;2023-08-17T02:51:01;19.60;99.90
24800;DHT22;12897;50.812;4.430;2023-08-17T02:53:28;19.50;99.90
24800;DHT22;12897;50.812;4.430;2023-08-17T02:55:56;19.50;99.90
24800;DHT22;12897;50.812;4.430;2023-08-17T02:58:23;19.60;99.90
24800;DHT22;12897;50.812;4.430;2023-08-17T03:00:53;19.50;99.90
24800;DHT22;12897;50.812;4.430;2023-08-17T03:03:21;19.40;99.90
24800;DHT22;12897;50.812;4.430;2023-08-17T03:05:48;19.40;99.90
24800;DHT22;12897;50.812;4.430;2023-08-17T03:08:16;19.50;99.90
24800;DHT22;12897;50.812;4.430;2023-08-17T03:10:43;19.40;99.90
24800;DHT22;12897;50.812;4.430;2023-08-17T03:13:11;19.50;99.90
24800;DHT22;12897;50.812;4.430;2023-08-17T03:15:38;19.40;99.90
24800;DHT22;12897;50.812;4.430;2023-08-17T03:18:06;19.50;99.90
24800;DHT22;12897;50.812;4.430;2023-08-17T03:20:34;19.50;99.90
24800;DHT22;12897;50.812;4.430;2023-08-17T03:23:02;19.30;99.90
24800;DHT22;12897;50.812;4.430;2023-08-17T03:25:31;19.30;99.90
24800;DHT22;12897;50.812;4.430;2023-08-17T03:28:00;19.40;99.90
24800;DHT22;12897;50.812;4.430;2023-08-17T03:30:27;19.30;99.90
24800;DHT22;12897;50.812;4.430;2023-08-17T03:32:55;19.40;99.90
24800;DHT22;12897;50.812;4.430;2023-08-17T03:35:22;19.40;99.90
24800;DHT22;12897;50.812;4.430;2023-08-17T03:37:50;19.30;99.90
24800;DHT22;12897;50.812;4.430;2023-08-17T03:40:18;19.20;99.90
24800;DHT22;12897;50.812;4.430;2023-08-17T03:42:45;19.00;99.90
24800;DHT22;12897;50.812;4.430;2023-08-17T03:45:13;19.00;99.90
24800;DHT22;12897;50.812;4.430;2023-08-17T03:47:40;18.80;99.90
24800;DHT22;12897;50.812;4.430;2023-08-17T03:50:09;18.60;99.90
24800;DHT22;12897;50.812;4.430;2023-08-17T03:52:37;18.70;99.90
24800;DHT22;12897;50.812;4.430;2023-08-17T03:55:05;18.80;99.90
24800;DHT22;12897;50.812;4.430;2023-08-17T03:57:33;18.80;99.90
24800;DHT22;12897;50.812;4.430;2023-08-17T04:00:00;18.80;99.90
24800;DHT22;12897;50.812;4.430;2023-08-17T04:02:28;18.80;99.90
24800;DHT22;12897;50.812;4.430;2023-08-17T04:04:55;18.70;99.90
24800;DHT22;12897;50.812;4.430;2023-08-17T04:07:23;18.70;99.90
24800;DHT22;12897;50.812;4.430;2023-08-17T04:09:51;18.70;99.90
24800;DHT22;12897;50.812;4.430;2023-08-17T04:12:18;18.50;99.90
24800;DHT22;12897;50.812;4.430;2023-08-17T04:14:46;18.50;99.90
24800;DHT22;12897;50.812;4.430;2023-08-17T04:17:14;18.50;99.90
24800;DHT22;12897;50.812;4.430;2023-08-17T04:19:41;18.40;99.90
24800;DHT22;12897;50.812;4.430;2023-08-17T04:22:09;18.40;99.90
24800;DHT22;12897;50.812;4.430;2023-08-17T04:24:36;18.50;99.90
24800;DHT22;12897;50.812;4.430;2023-08-17T04:27:04;18.60;99.90
24800;DHT22;12897;50.812;4.430;2023-08-17T04:29:32;18.50;99.90
24800;DHT22;12897;50.812;4.430;2023-08-17T04:31:59;18.50;99.90
24800;DHT22;12897;50.812;4.430;2023-08-17T04:34:27;18.50;99.90
24800;DHT22;12897;50.812;4.430;2023-08-17T04:36:54;18.60;99.90
24800;DHT22;12897;50.812;4.430;2023-08-17T04:39:22;18.70;99.90
24800;DHT22;12897;50.812;4.430;2023-08-17T04:41:49;18.80;99.90
24800;DHT22;12897;50.812;4.430;2023-08-17T04:44:17;18.80;99.90
24800;DHT22;12897;50.812;4.430;2023-08-17T04:46:44;18.80;99.90
24800;DHT22;12897;50.812;4.430;2023-08-17T04:49:12;18.90;99.90
24800;DHT22;12897;50.812;4.430;2023-08-17T04:51:39;18.80;99.90
24800;DHT22;12897;50.812;4.430;2023-08-17T04:54:07;18.90;99.90
24800;DHT22;12897;50.812;4.430;2023-08-17T04:56:34;19.10;99.90
24800;DHT22;12897;50.812;4.430;2023-08-17T04:59:02;19.10;99.90
24800;DHT22;12897;50.812;4.430;2023-08-17T05:01:30;19.00;99.90
24800;DHT22;12897;50.812;4.430;2023-08-17T05:03:58;19.00;99.90
24800;DHT22;12897;50.812;4.430;2023-08-17T05:06:28;19.00;99.90
24800;DHT22;12897;50.812;4.430;2023-08-17T05:08:56;19.00;99.90
24800;DHT22;12897;50.812;4.430;2023-08-17T05:11:23;19.00;99.90
24800;DHT22;12897;50.812;4.430;2023-08-17T05:13:51;19.10;99.90
24800;DHT22;12897;50.812;4.430;2023-08-17T05:16:18;19.20;99.90
24800;DHT22;12897;50.812;4.430;2023-08-17T05:18:46;19.20;99.90
24800;DHT22;12897;50.812;4.430;2023-08-17T05:21:14;19.10;99.90
24800;DHT22;12897;50.812;4.430;2023-08-17T05:23:41;19.10;99.90
24800;DHT22;12897;50.812;4.430;2023-08-17T05:26:09;18.90;99.90
24800;DHT22;12897;50.812;4.430;2023-08-17T05:28:36;18.90;99.90
24800;DHT22;12897;50.812;4.430;2023-08-17T05:31:06;19.00;99.90
24800;DHT22;12897;50.812;4.430;2023-08-17T05:33:34;19.00;99.90
24800;DHT22;12897;50.812;4.430;2023-08-17T05:36:01;19.10;99.90
24800;DHT22;12897;50.812;4.430;2023-08-17T05:38:29;19.30;99.90
24800;DHT22;12897;50.812;4.430;2023-08-17T05:40:57;19.50;99.90
24800;DHT22;12897;50.812;4.430;2023-08-17T05:43:25;19.40;99.90
24800;DHT22;12897;50.812;4.430;2023-08-17T05:45:53;19.40;99.90
24800;DHT22;12897;50.812;4.430;2023-08-17T05:48:21;19.40;99.90
24800;DHT22;12897;50.812;4.430;2023-08-17T05:50:49;19.30;99.90
24800;DHT22;12897;50.812;4.430;2023-08-17T05:53:16;19.30;99.90
24800;DHT22;12897;50.812;4.430;2023-08-17T05:55:44;19.30;99.90
24800;DHT22;12897;50.812;4.430;2023-08-17T05:58:11;19.40;99.90
24800;DHT22;12897;50.812;4.430;2023-08-17T06:00:39;19.40;99.90
24800;DHT22;12897;50.812;4.430;2023-08-17T06:03:08;19.40;99.90
24800;DHT22;12897;50.812;4.430;2023-08-17T06:05:35;19.60;99.90
24800;DHT22;12897;50.812;4.430;2023-08-17T06:08:03;19.70;99.90
24800;DHT22;12897;50.812;4.430;2023-08-17T06:10:30;19.80;99.90
24800;DHT22;12897;50.812;4.430;2023-08-17T06:12:58;19.90;99.90
24800;DHT22;12897;50.812;4.430;2023-08-17T06:15:26;20.00;99.90
24800;DHT22;12897;50.812;4.430;2023-08-17T06:17:53;20.10;99.90
24800;DHT22;12897;50.812;4.430;2023-08-17T06:20:21;19.80;99.90
24800;DHT22;12897;50.812;4.430;2023-08-17T06:22:48;19.70;99.90
24800;DHT22;12897;50.812;4.430;2023-08-17T06:25:16;19.90;99.90
24800;DHT22;12897;50.812;4.430;2023-08-17T06:27:44;19.90;99.90
24800;DHT22;12897;50.812;4.430;2023-08-17T06:30:12;19.90;99.90
24800;DHT22;12897;50.812;4.430;2023-08-17T06:32:39;19.80;99.90
24800;DHT22;12897;50.812;4.430;2023-08-17T06:35:07;20.00;99.90
24800;DHT22;12897;50.812;4.430;2023-08-17T06:37:35;19.90;99.90
24800;DHT22;12897;50.812;4.430;2023-08-17T06:40:05;20.00;99.90
24800;DHT22;12897;50.812;4.430;2023-08-17T06:42:33;19.60;99.90
24800;DHT22;12897;50.812;4.430;2023-08-17T06:45:00;19.60;99.90
24800;DHT22;12897;50.812;4.430;2023-08-17T06:47:28;19.70;99.90
24800;DHT22;12897;50.812;4.430;2023-08-17T06:49:55;19.90;99.90
24800;DHT22;12897;50.812;4.430;2023-08-17T06:52:25;19.90;99.90
24800;DHT22;12897;50.812;4.430;2023-08-17T06:54:52;19.90;99.90
24800;DHT22;12897;50.812;4.430;2023-08-17T06:57:20;19.60;99.90
24800;DHT22;12897;50.812;4.430;2023-08-17T06:59:48;19.60;99.90
24800;DHT22;12897;50.812;4.430;2023-08-17T07:02:15;19.70;99.90
24800;DHT22;12897;50.812;4.430;2023-08-17T07:04:43;19.80;99.90
24800;DHT22;12897;50.812;4.430;2023-08-17T07:07:10;19.80;99.90
24800;DHT22;12897;50.812;4.430;2023-08-17T07:09:38;20.00;99.90
24800;DHT22;12897;50.812;4.430;2023-08-17T07:12:06;19.80;99.90
24800;DHT22;12897;50.812;4.430;2023-08-17T07:14:33;20.00;99.90
24800;DHT22;12897;50.812;4.430;2023-08-17T07:17:01;20.00;99.90
24800;DHT22;12897;50.812;4.430;2023-08-17T07:19:28;19.90;99.90
24800;DHT22;12897;50.812;4.430;2023-08-17T07:21:56;19.80;99.90
24800;DHT22;12897;50.812;4.430;2023-08-17T07:24:24;19.80;99.90
24800;DHT22;12897;50.812;4.430;2023-08-17T07:26:51;19.90;99.90
24800;DHT22;12897;50.812;4.430;2023-08-17T07:29:18;20.10;99.90
24800;DHT22;12897;50.812;4.430;2023-08-17T07:31:46;20.00;99.90
24800;DHT22;12897;50.812;4.430;2023-08-17T07:34:14;19.80;99.90
24800;DHT22;12897;50.812;4.430;2023-08-17T07:36:42;19.80;99.90
24800;DHT22;12897;50.812;4.430;2023-08-17T07:39:09;19.70;99.90
24800;DHT22;12897;50.812;4.430;2023-08-17T07:41:37;19.60;99.90
24800;DHT22;12897;50.812;4.430;2023-08-17T07:44:05;19.70;99.90
24800;DHT22;12897;50.812;4.430;2023-08-17T07:46:32;19.90;99.90
24800;DHT22;12897;50.812;4.430;2023-08-17T07:49:00;19.90;99.90
24800;DHT22;12897;50.812;4.430;2023-08-17T07:51:27;20.00;99.90
24800;DHT22;12897;50.812;4.430;2023-08-17T07:53:57;20.10;99.90
24800;DHT22;12897;50.812;4.430;2023-08-17T07:56:24;20.20;99.90
24800;DHT22;12897;50.812;4.430;2023-08-17T07:58:54;20.20;99.90
24800;DHT22;12897;50.812;4.430;2023-08-17T08:01:21;20.30;99.90
24800;DHT22;12897;50.812;4.430;2023-08-17T08:03:49;20.30;99.90
24800;DHT22;12897;50.812;4.430;2023-08-17T08:06:16;20.30;99.90
24800;DHT22;12897;50.812;4.430;2023-08-17T08:08:46;20.20;99.90
24800;DHT22;12897;50.812;4.430;2023-08-17T08:11:13;19.80;99.90
24800;DHT22;12897;50.812;4.430;2023-08-17T08:13:41;19.90;99.90
24800;DHT22;12897;50.812;4.430;2023-08-17T08:16:09;20.00;99.90
24800;DHT22;12897;50.812;4.430;2023-08-17T08:18:36;20.00;99.90
24800;DHT22;12897;50.812;4.430;2023-08-17T08:21:03;20.10;99.90
24800;DHT22;12897;50.812;4.430;2023-08-17T08:23:31;20.10;99.90
24800;DHT22;12897;50.812;4.430;2023-08-17T08:25:58;20.30;99.90
24800;DHT22;12897;50.812;4.430;2023-08-17T08:28:26;20.60;99.90
24800;DHT22;12897;50.812;4.430;2023-08-17T08:30:54;20.80;99.90
24800;DHT22;12897;50.812;4.430;2023-08-17T08:33:21;20.80;99.90
24800;DHT22;12897;50.812;4.430;2023-08-17T08:35:49;20.60;99.90
24800;DHT22;12897;50.812;4.430;2023-08-17T08:38:16;20.40;99.90
24800;DHT22;12897;50.812;4.430;2023-08-17T08:40:44;20.50;99.90
24800;DHT22;12897;50.812;4.430;2023-08-17T08:43:14;20.60;99.90
24800;DHT22;12897;50.812;4.430;2023-08-17T08:45:42;20.80;99.90
24800;DHT22;12897;50.812;4.430;2023-08-17T08:48:14;20.90;99.90
24800;DHT22;12897;50.812;4.430;2023-08-17T08:50:43;20.80;99.90
24800;DHT22;12897;50.812;4.430;2023-08-17T08:53:15;20.80;99.90
24800;DHT22;12897;50.812;4.430;2023-08-17T08:55:46;20.80;99.90
24800;DHT22;12897;50.812;4.430;2023-08-17T08:58:15;21.00;99.90
24800;DHT22;12897;50.812;4.430;2023-08-17T09:00:45;20.80;99.90
24800;DHT22;12897;50.812;4.430;2023-08-17T09:03:12;20.70;99.90
24800;DHT22;12897;50.812;4.430;2023-08-17T09:05:40;20.90;99.90
24800;DHT22;12897;50.812;4.430;2023-08-17T09:08:09;21.00;99.90
24800;DHT22;12897;50.812;4.430;2023-08-17T09:10:38;21.10;99.90
24800;DHT22;12897;50.812;4.430;2023-08-17T09:13:06;21.20;99.90
24800;DHT22;12897;50.812;4.430;2023-08-17T09:15:33;21.50;99.90
24800;DHT22;12897;50.812;4.430;2023-08-17T09:18:01;21.40;99.90
24800;DHT22;12897;50.812;4.430;2023-08-17T09:20:42;21.60;99.90
24800;DHT22;12897;50.812;4.430;2023-08-17T09:23:14;21.80;99.90
24800;DHT22;12897;50.812;4.430;2023-08-17T09:25:44;22.00;99.90
24800;DHT22;12897;50.812;4.430;2023-08-17T09:28:12;21.90;99.90
24800;DHT22;12897;50.812;4.430;2023-08-17T09:30:59;21.60;99.90
24800;DHT22;12897;50.812;4.430;2023-08-17T09:33:28;21.10;99.90
24800;DHT22;12897;50.812;4.430;2023-08-17T09:35:57;21.30;99.90
24800;DHT22;12897;50.812;4.430;2023-08-17T09:38:25;21.60;99.90
24800;DHT22;12897;50.812;4.430;2023-08-17T09:40:53;21.90;99.90
24800;DHT22;12897;50.812;4.430;2023-08-17T09:43:21;22.20;99.90
24800;DHT22;12897;50.812;4.430;2023-08-17T09:45:49;22.30;99.90
24800;DHT22;12897;50.812;4.430;2023-08-17T09:48:18;21.90;99.90
24800;DHT22;12897;50.812;4.430;2023-08-17T09:50:47;21.40;99.90
24800;DHT22;12897;50.812;4.430;2023-08-17T09:53:17;21.40;99.90
24800;DHT22;12897;50.812;4.430;2023-08-17T09:55:45;21.70;99.90
24800;DHT22;12897;50.812;4.430;2023-08-17T09:58:15;21.80;99.90
24800;DHT22;12897;50.812;4.430;2023-08-17T10:00:47;22.00;99.90
24800;DHT22;12897;50.812;4.430;2023-08-17T10:03:17;22.50;99.90
24800;DHT22;12897;50.812;4.430;2023-08-17T10:05:55;22.60;99.90
24800;DHT22;12897;50.812;4.430;2023-08-17T10:08:20;22.70;99.90
24800;DHT22;12897;50.812;4.430;2023-08-17T10:10:48;22.40;99.90
24800;DHT22;12897;50.812;4.430;2023-08-17T10:21:21;21.80;99.90
24800;DHT22;12897;50.812;4.430;2023-08-17T10:23:47;21.90;99.90
24800;DHT22;12897;50.812;4.430;2023-08-17T10:26:16;22.40;99.90
24800;DHT22;12897;50.812;4.430;2023-08-17T10:28:45;22.70;99.90
24800;DHT22;12897;50.812;4.430;2023-08-17T10:31:13;23.10;99.90
24800;DHT22;12897;50.812;4.430;2023-08-17T10:33:42;23.30;99.90
24800;DHT22;12897;50.812;4.430;2023-08-17T10:36:13;23.20;99.90
24800;DHT22;12897;50.812;4.430;2023-08-17T10:38:41;23.30;99.90
24800;DHT22;12897;50.812;4.430;2023-08-17T10:41:13;23.20;99.90
24800;DHT22;12897;50.812;4.430;2023-08-17T10:43:54;23.30;99.90
24800;DHT22;12897;50.812;4.430;2023-08-17T10:46:33;23.00;99.90
24800;DHT22;12897;50.812;4.430;2023-08-17T10:49:03;22.90;99.90
24800;DHT22;12897;50.812;4.430;2023-08-17T10:51:33;22.70;99.90
24800;DHT22;12897;50.812;4.430;2023-08-17T10:54:04;22.80;99.90
24800;DHT22;12897;50.812;4.430;2023-08-17T10:56:33;23.00;99.90
24800;DHT22;12897;50.812;4.430;2023-08-17T10:59:05;22.80;99.90
24800;DHT22;12897;50.812;4.430;2023-08-17T11:01:35;23.30;99.90
24800;DHT22;12897;50.812;4.430;2023-08-17T11:04:15;23.60;99.90
24800;DHT22;12897;50.812;4.430;2023-08-17T11:06:43;23.50;99.90
24800;DHT22;12897;50.812;4.430;2023-08-17T11:09:10;23.30;99.90
24800;DHT22;12897;50.812;4.430;2023-08-17T11:11:38;23.30;99.90
24800;DHT22;12897;50.812;4.430;2023-08-17T11:14:06;23.20;99.90
24800;DHT22;12897;50.812;4.430;2023-08-17T11:16:33;23.00;99.90
24800;DHT22;12897;50.812;4.430;2023-08-17T11:19:01;22.60;99.90
24800;DHT22;12897;50.812;4.430;2023-08-17T11:21:29;22.50;99.90
24800;DHT22;12897;50.812;4.430;2023-08-17T11:23:56;22.90;99.90
24800;DHT22;12897;50.812;4.430;2023-08-17T11:26:24;23.10;99.90
24800;DHT22;12897;50.812;4.430;2023-08-17T11:28:54;22.40;99.90
24800;DHT22;12897;50.812;4.430;2023-08-17T11:31:21;22.10;99.90
24800;DHT22;12897;50.812;4.430;2023-08-17T11:33:49;22.00;99.90
24800;DHT22;12897;50.812;4.430;2023-08-17T11:36:16;22.40;99.90
24800;DHT22;12897;50.812;4.430;2023-08-17T11:38:44;22.70;99.90
24800;DHT22;12897;50.812;4.430;2023-08-17T11:41:12;23.00;99.90
24800;DHT22;12897;50.812;4.430;2023-08-17T11:43:41;23.30;99.90
24800;DHT22;12897;50.812;4.430;2023-08-17T11:46:09;23.20;99.90
24800;DHT22;12897;50.812;4.430;2023-08-17T11:48:37;23.20;99.90
24800;DHT22;12897;50.812;4.430;2023-08-17T11:51:05;23.30;99.90
24800;DHT22;12897;50.812;4.430;2023-08-17T11:53:36;23.30;99.90
24800;DHT22;12897;50.812;4.430;2023-08-17T11:56:05;23.50;99.90
24800;DHT22;12897;50.812;4.430;2023-08-17T11:58:43;23.60;99.90
24800;DHT22;12897;50.812;4.430;2023-08-17T12:01:12;23.30;99.90
24800;DHT22;12897;50.812;4.430;2023-08-17T12:03:41;23.20;99.90
24800;DHT22;12897;50.812;4.430;2023-08-17T12:06:10;23.00;99.90
24800;DHT22;12897;50.812;4.430;2023-08-17T12:08:44;23.00;99.90
24800;DHT22;12897;50.812;4.430;2023-08-17T12:11:09;23.20;99.90
24800;DHT22;12897;50.812;4.430;2023-08-17T12:13:37;23.20;99.90
24800;DHT22;12897;50.812;4.430;2023-08-17T12:16:05;23.20;99.90
24800;DHT22;12897;50.812;4.430;2023-08-17T12:18:33;23.20;99.90
24800;DHT22;12897;50.812;4.430;2023-08-17T12:21:01;22.90;99.90
24800;DHT22;12897;50.812;4.430;2023-08-17T12:23:29;23.00;99.90
24800;DHT22;12897;50.812;4.430;2023-08-17T12:25:56;23.10;99.90
24800;DHT22;12897;50.812;4.430;2023-08-17T12:28:24;23.20;99.90
24800;DHT22;12897;50.812;4.430;2023-08-17T12:31:00;23.30;99.90
24800;DHT22;12897;50.812;4.430;2023-08-17T12:33:28;23.30;99.90
24800;DHT22;12897;50.812;4.430;2023-08-17T12:35:56;23.30;99.90
24800;DHT22;12897;50.812;4.430;2023-08-17T12:38:24;23.40;99.90
24800;DHT22;12897;50.812;4.430;2023-08-17T12:40:53;23.20;99.90
24800;DHT22;12897;50.812;4.430;2023-08-17T12:43:20;23.30;99.90
24800;DHT22;12897;50.812;4.430;2023-08-17T12:45:48;23.30;99.90
24800;DHT22;12897;50.812;4.430;2023-08-17T12:48:16;23.20;99.90
24800;DHT22;12897;50.812;4.430;2023-08-17T12:50:43;22.90;99.90
24800;DHT22;12897;50.812;4.430;2023-08-17T12:53:11;22.90;99.90
24800;DHT22;12897;50.812;4.430;2023-08-17T12:55:39;22.80;99.90
24800;DHT22;12897;50.812;4.430;2023-08-17T12:58:08;23.00;99.90
24800;DHT22;12897;50.812;4.430;2023-08-17T13:00:36;22.90;99.90
24800;DHT22;12897;50.812;4.430;2023-08-17T13:03:04;23.10;99.90
24800;DHT22;12897;50.812;4.430;2023-08-17T13:05:33;23.20;99.90
24800;DHT22;12897;50.812;4.430;2023-08-17T13:08:00;23.20;99.90
24800;DHT22;12897;50.812;4.430;2023-08-17T13:10:28;23.50;99.90
24800;DHT22;12897;50.812;4.430;2023-08-17T13:12:55;23.60;99.90
24800;DHT22;12897;50.812;4.430;2023-08-17T13:15:25;23.50;99.90
24800;DHT22;12897;50.812;4.430;2023-08-17T13:17:52;23.60;99.90
24800;DHT22;12897;50.812;4.430;2023-08-17T13:20:20;23.50;99.90
24800;DHT22;12897;50.812;4.430;2023-08-17T13:22:47;23.10;99.90
24800;DHT22;12897;50.812;4.430;2023-08-17T13:25:16;23.00;99.90
24800;DHT22;12897;50.812;4.430;2023-08-17T13:27:44;23.10;99.90
24800;DHT22;12897;50.812;4.430;2023-08-17T13:30:11;22.90;99.90
24800;DHT22;12897;50.812;4.430;2023-08-17T13:32:39;22.50;99.90
24800;DHT22;12897;50.812;4.430;2023-08-17T13:35:07;22.60;99.90
24800;DHT22;12897;50.812;4.430;2023-08-17T13:37:37;22.90;99.90
24800;DHT22;12897;50.812;4.430;2023-08-17T13:40:05;22.80;99.90
24800;DHT22;12897;50.812;4.430;2023-08-17T13:42:33;23.00;99.90
24800;DHT22;12897;50.812;4.430;2023-08-17T13:45:01;23.10;99.90
24800;DHT22;12897;50.812;4.430;2023-08-17T13:47:30;22.80;99.90
24800;DHT22;12897;50.812;4.430;2023-08-17T13:49:57;23.00;99.90
24800;DHT22;12897;50.812;4.430;2023-08-17T13:52:25;22.90;99.90
24800;DHT22;12897;50.812;4.430;2023-08-17T13:54:52;23.10;99.90
24800;DHT22;12897;50.812;4.430;2023-08-17T13:57:20;23.30;99.90
24800;DHT22;12897;50.812;4.430;2023-08-17T13:59:49;23.10;99.90
24800;DHT22;12897;50.812;4.430;2023-08-17T14:02:16;23.30;99.90
24800;DHT22;12897;50.812;4.430;2023-08-17T14:04:44;23.50;99.90
24800;DHT22;12897;50.812;4.430;2023-08-17T14:07:11;23.50;99.90
24800;DHT22;12897;50.812;4.430;2023-08-17T14:09:39;23.60;99.90
24800;DHT22;12897;50.812;4.430;2023-08-17T14:12:06;23.70;99.90
24800;DHT22;12897;50.812;4.430;2023-08-17T14:14:34;23.70;99.90
24800;DHT22;12897;50.812;4.430;2023-08-17T14:17:01;23.50;99.90
24800;DHT22;12897;50.812;4.430;2023-08-17T14:19:29;23.20;99.90
24800;DHT22;12897;50.812;4.430;2023-08-17T14:22:17;23.30;99.90
24800;DHT22;12897;50.812;4.430;2023-08-17T14:24:44;23.60;99.90
24800;DHT22;12897;50.812;4.430;2023-08-17T14:27:12;23.70;99.90
24800;DHT22;12897;50.812;4.430;2023-08-17T14:29:39;23.70;99.90
24800;DHT22;12897;50.812;4.430;2023-08-17T14:32:07;23.70;99.90
24800;DHT22;12897;50.812;4.430;2023-08-17T14:34:34;23.70;99.90
24800;DHT22;12897;50.812;4.430;2023-08-17T14:37:02;23.80;99.90
24800;DHT22;12897;50.812;4.430;2023-08-17T14:39:29;23.60;99.90
24800;DHT22;12897;50.812;4.430;2023-08-17T14:41:57;23.50;99.90
24800;DHT22;12897;50.812;4.430;2023-08-17T14:44:25;23.40;99.90
24800;DHT22;12897;50.812;4.430;2023-08-17T14:46:52;23.10;99.90
24800;DHT22;12897;50.812;4.430;2023-08-17T14:49:20;23.00;99.90
24800;DHT22;12897;50.812;4.430;2023-08-17T14:51:47;23.10;99.90
24800;DHT22;12897;50.812;4.430;2023-08-17T14:54:15;23.00;99.90
24800;DHT22;12897;50.812;4.430;2023-08-17T14:56:42;22.60;99.90
24800;DHT22;12897;50.812;4.430;2023-08-17T14:59:10;22.50;99.90
24800;DHT22;12897;50.812;4.430;2023-08-17T15:01:38;22.50;99.90
24800;DHT22;12897;50.812;4.430;2023-08-17T15:04:05;22.70;99.90
24800;DHT22;12897;50.812;4.430;2023-08-17T15:06:33;23.10;99.90
24800;DHT22;12897;50.812;4.430;2023-08-17T15:09:01;23.10;99.90
24800;DHT22;12897;50.812;4.430;2023-08-17T15:11:29;23.30;99.90
24800;DHT22;12897;50.812;4.430;2023-08-17T15:13:57;23.40;99.90
24800;DHT22;12897;50.812;4.430;2023-08-17T15:16:24;23.60;99.90
24800;DHT22;12897;50.812;4.430;2023-08-17T15:18:54;23.70;99.90
24800;DHT22;12897;50.812;4.430;2023-08-17T15:21:22;23.70;99.90
24800;DHT22;12897;50.812;4.430;2023-08-17T15:23:50;23.80;99.90
24800;DHT22;12897;50.812;4.430;2023-08-17T15:26:17;23.90;99.90
24800;DHT22;12897;50.812;4.430;2023-08-17T15:28:45;23.90;99.90
24800;DHT22;12897;50.812;4.430;2023-08-17T15:31:12;23.80;99.90
24800;DHT22;12897;50.812;4.430;2023-08-17T15:33:41;23.80;99.90
24800;DHT22;12897;50.812;4.430;2023-08-17T15:36:08;23.90;99.90
24800;DHT22;12897;50.812;4.430;2023-08-17T15:38:36;23.90;99.90
24800;DHT22;12897;50.812;4.430;2023-08-17T15:41:03;23.80;99.90
24800;DHT22;12897;50.812;4.430;2023-08-17T15:43:31;23.90;99.90
24800;DHT22;12897;50.812;4.430;2023-08-17T15:45:59;24.10;99.90